createdAt,value
2023-03-26T00:03:05.172Z,10.10
2023-03-26T00:08:11.452Z,10.40
2023-03-26T00:13:13.166Z,13.40
2023-03-26T00:18:15.516Z,14.20
2023-03-26T00:23:17.638Z,14.81
2023-03-26T00:28:22.281Z,15.64
2023-03-26T00:33:24.276Z,15.50
2023-03-26T00:38:27.420Z,14.89
2023-03-26T00:43:32.908Z,13.10
2023-03-26T00:48:42.198Z,14.59
2023-03-26T00:53:48.773Z,15.03
2023-03-26T00:58:50.676Z,15.07
2023-03-26T01:04:07.256Z,13.99
2023-03-26T01:09:17.174Z,13.37
2023-03-26T01:14:23.627Z,14.03
2023-03-26T01:19:25.873Z,13.93
2023-03-26T01:24:27.553Z,14.85
2023-03-26T01:29:29.110Z,14.58
2023-03-26T01:34:49.857Z,13.70
2023-03-26T01:39:57.559Z,11.68
2023-03-26T01:45:15.502Z,11.52
2023-03-26T01:50:17.380Z,13.75
2023-03-26T01:55:19.604Z,14.64
2023-03-26T02:00:35.884Z,14.64
2023-03-26T02:05:44.121Z,12.65
2023-03-26T02:10:49.008Z,13.32
2023-03-26T02:16:01.935Z,14.52
2023-03-26T02:21:10.035Z,10.98
2023-03-26T02:26:11.738Z,12.80
2023-03-26T02:31:13.981Z,14.25
2023-03-26T02:36:19.706Z,14.06
2023-03-26T02:41:22.037Z,11.30
2023-03-26T02:46:23.679Z,12.47
2023-03-26T02:51:25.895Z,13.72
2023-03-26T02:56:28.066Z,13.29
2023-03-26T03:01:30.968Z,14.97
2023-03-26T03:06:32.889Z,14.25
2023-03-26T03:11:35.586Z,13.96
2023-03-26T03:16:37.316Z,12.92
2023-03-26T03:21:39.861Z,14.13
2023-03-26T03:26:42.414Z,13.63
2023-03-26T03:31:44.264Z,13.51
2023-03-26T03:36:49.093Z,15.72
2023-03-26T03:41:51.033Z,14.19
2023-03-26T03:46:55.578Z,13.93
2023-03-26T03:51:57.512Z,13.18
2023-03-26T03:56:59.298Z,14.37
2023-03-26T04:02:00.999Z,12.91
2023-03-26T04:07:02.651Z,12.76
2023-03-26T04:12:04.533Z,14.18
2023-03-26T04:17:06.302Z,14.47
2023-03-26T04:22:08.085Z,13.10
2023-03-26T04:27:20.285Z,11.20
2023-03-26T04:32:30.522Z,11.19
2023-03-26T04:37:35.276Z,11.23
2023-03-26T04:42:41.653Z,11.90
2023-03-26T04:47:43.814Z,12.58
2023-03-26T04:52:46.006Z,12.42
2023-03-26T04:57:53.280Z,13.65
2023-03-26T05:02:57.822Z,11.22
2023-03-26T05:07:59.524Z,11.99
2023-03-26T05:13:01.533Z,11.44
2023-03-26T05:18:03.221Z,12.34
2023-03-26T05:23:04.874Z,12.47
2023-03-26T05:28:06.535Z,13.98
2023-03-26T05:33:08.362Z,14.07
2023-03-26T05:38:10.056Z,15.11
2023-03-26T05:48:39.023Z,12.53
2023-03-26T05:53:41.022Z,14.53
2023-03-26T05:58:44.026Z,12.55
2023-03-26T06:03:46.279Z,13.52
2023-03-26T06:09:02.014Z,12.93
2023-03-26T06:14:05.020Z,13.50
2023-03-26T06:19:07.123Z,13.27
2023-03-26T06:29:35.093Z,13.10
2023-03-26T06:34:37.082Z,14.38
2023-03-26T06:39:39.071Z,15.61
2023-03-26T06:44:41.108Z,14.35
2023-03-26T06:49:44.914Z,15.13
2023-03-26T06:54:47.122Z,13.53
2023-03-26T06:59:49.104Z,12.59
2023-03-26T07:04:51.485Z,13.46
2023-03-26T07:09:54.259Z,14.45
2023-03-26T07:14:59.028Z,13.84
2023-03-26T07:20:02.109Z,14.44
2023-03-26T07:25:05.172Z,13.42
2023-03-26T07:30:16.156Z,12.58
2023-03-26T07:35:36.194Z,11.78
2023-03-26T07:41:17.178Z,13.30
2023-03-26T07:46:26.148Z,13.96
2023-03-26T07:51:29.172Z,11.07
2023-03-26T07:56:49.263Z,12.72
2023-03-26T08:02:18.564Z,9.68
2023-03-26T08:07:29.303Z,11.51
2023-03-26T08:12:44.197Z,12.62
2023-03-26T08:17:54.299Z,10.66
2023-03-26T08:23:06.214Z,9.59
2023-03-26T08:28:35.203Z,11.67
2023-03-26T08:33:38.344Z,12.33
2023-03-26T08:38:40.216Z,10.86
2023-03-26T08:44:20.206Z,10.85
2023-03-26T08:49:39.268Z,11.12
2023-03-26T08:55:05.232Z,9.93
2023-03-26T09:00:22.240Z,11.36
2023-03-26T09:05:52.621Z,12.00
2023-03-26T09:11:19.391Z,12.70
2023-03-26T09:16:35.345Z,10.76
2023-03-26T09:22:09.300Z,11.95
2023-03-26T09:27:32.312Z,11.95
2023-03-26T09:32:58.321Z,13.15
2023-03-26T09:38:03.281Z,13.19
2023-03-26T09:43:38.315Z,11.80
2023-03-26T09:49:17.569Z,12.85
2023-03-26T09:54:45.300Z,12.86
2023-03-26T09:59:53.346Z,12.31
2023-03-26T10:05:20.583Z,12.38
2023-03-26T10:10:59.602Z,12.95
2023-03-26T10:16:10.377Z,14.45
2023-03-26T10:21:47.336Z,13.26
2023-03-26T10:27:08.991Z,12.95
2023-03-26T10:32:49.466Z,12.41
2023-03-26T10:38:29.860Z,12.54
2023-03-26T10:44:10.373Z,12.29
2023-03-26T10:55:25.455Z,10.88
2023-03-26T11:06:51.123Z,9.73
2023-03-26T11:12:26.751Z,10.93
2023-03-26T11:17:42.541Z,11.83
2023-03-26T11:22:55.555Z,11.31
2023-03-26T11:28:19.249Z,12.03
2023-03-26T11:33:45.626Z,11.39
2023-03-26T11:38:51.684Z,12.09
2023-03-26T11:44:09.587Z,11.56
2023-03-26T11:49:16.797Z,11.81
2023-03-26T11:54:21.047Z,12.85
2023-03-26T11:59:56.679Z,13.08
2023-03-26T12:05:20.870Z,13.11
2023-03-26T12:10:31.716Z,12.41
2023-03-26T12:15:33.583Z,13.64
2023-03-26T12:20:37.600Z,13.21
2023-03-26T12:25:39.603Z,13.51
2023-03-26T12:30:52.716Z,12.86
2023-03-26T12:35:58.639Z,14.39
2023-03-26T12:41:08.626Z,13.03
2023-03-26T12:47:57.074Z,12.96
2023-03-26T12:52:07.154Z,12.34
2023-03-26T12:57:32.301Z,12.48
2023-03-26T13:03:01.657Z,14.07
2023-03-26T13:08:26.530Z,12.65
2023-03-26T13:13:33.945Z,13.47
2023-03-26T13:18:53.379Z,13.57
2023-03-26T13:24:31.152Z,13.00
2023-03-26T13:30:03.319Z,11.96
2023-03-26T13:35:10.786Z,10.24
2023-03-26T13:40:20.699Z,9.63
2023-03-26T13:45:53.242Z,10.06
2023-03-26T13:51:19.665Z,8.40
2023-03-26T13:56:28.020Z,7.91
2023-03-26T14:01:36.397Z,8.14
2023-03-26T14:06:47.297Z,7.10
2023-03-26T14:11:51.557Z,8.56
2023-03-26T14:17:06.518Z,9.35
2023-03-26T14:23:13.257Z,9.85
2023-03-26T14:28:38.337Z,10.94
2023-03-26T14:33:57.308Z,9.07
2023-03-26T14:39:14.360Z,9.79
2023-03-26T14:44:47.894Z,10.17
2023-03-26T14:50:12.189Z,9.99
2023-03-26T14:55:31.745Z,10.12
2023-03-26T15:00:51.345Z,10.34
2023-03-26T15:06:17.514Z,10.80
2023-03-26T15:11:45.766Z,11.09
2023-03-26T15:17:17.666Z,10.23
2023-03-26T15:22:34.412Z,10.55
2023-03-26T15:27:57.765Z,10.04
2023-03-26T15:33:18.027Z,9.56
2023-03-26T15:38:50.118Z,10.12
2023-03-26T15:44:23.077Z,10.18
2023-03-26T15:49:24.792Z,7.86
2023-03-26T15:54:36.746Z,8.40
2023-03-26T16:00:01.879Z,9.33
2023-03-26T16:05:19.499Z,10.16
2023-03-26T16:10:38.382Z,11.04
2023-03-26T16:15:40.695Z,9.65
2023-03-26T16:20:57.269Z,10.64
2023-03-26T16:26:18.447Z,10.75
2023-03-26T16:31:37.830Z,11.31
2023-03-26T16:36:45.176Z,11.39
2023-03-26T16:42:06.565Z,10.31
2023-03-26T16:47:21.697Z,10.68
2023-03-26T16:52:30.212Z,10.48
2023-03-26T16:58:28.404Z,10.82
2023-03-26T17:03:52.075Z,10.80
2023-03-26T17:09:01.407Z,11.71
2023-03-26T17:14:03.751Z,12.25
2023-03-26T17:19:33.042Z,10.58
2023-03-26T17:24:43.321Z,11.75
2023-03-26T17:30:07.545Z,9.61
2023-03-26T17:35:09.392Z,9.61
2023-03-26T17:40:43.509Z,9.62
2023-03-26T17:45:47.135Z,11.07
2023-03-26T17:51:40.416Z,9.51
2023-03-26T17:56:42.447Z,9.43
2023-03-26T18:01:46.238Z,11.35
2023-03-26T18:06:56.650Z,10.57
2023-03-26T18:12:24.673Z,10.08
2023-03-26T18:17:26.369Z,10.23
2023-03-26T18:22:30.264Z,9.44
2023-03-26T18:27:40.892Z,9.57
2023-03-26T18:33:11.959Z,9.78
2023-03-26T18:38:36.136Z,8.40
2023-03-26T18:43:43.858Z,6.76
2023-03-26T18:48:46.957Z,9.63
2023-03-26T18:53:56.601Z,10.35
2023-03-26T18:58:59.788Z,7.23
2023-03-26T19:04:05.906Z,10.41
2023-03-26T19:09:30.258Z,9.52
2023-03-26T19:14:37.044Z,10.49
2023-03-26T19:19:38.992Z,8.88
2023-03-26T19:24:42.092Z,7.47
2023-03-26T19:29:44.517Z,8.49
2023-03-26T19:34:48.222Z,9.67
2023-03-26T19:39:54.043Z,9.98
2023-03-26T19:44:57.271Z,8.37
2023-03-26T19:50:03.791Z,7.91
2023-03-26T19:55:10.171Z,9.26
2023-03-26T20:00:16.074Z,9.53
2023-03-26T20:05:23.674Z,9.28
2023-03-26T20:10:26.344Z,8.32
2023-03-26T20:15:31.816Z,10.17
2023-03-26T20:20:34.326Z,10.42
2023-03-26T20:25:51.734Z,10.20
2023-03-26T20:30:54.701Z,10.04
2023-03-26T20:35:58.529Z,9.57
2023-03-26T20:41:00.560Z,10.22
2023-03-26T20:46:02.549Z,10.35
2023-03-26T20:51:04.887Z,10.36
2023-03-26T20:56:15.438Z,9.69
2023-03-26T21:01:17.558Z,8.57
2023-03-26T21:06:19.303Z,9.92
2023-03-26T21:11:29.590Z,9.75
2023-03-26T21:16:31.524Z,9.28
2023-03-26T21:21:47.631Z,9.52
2023-03-26T21:27:27.252Z,10.11
2023-03-26T21:32:31.616Z,9.89
2023-03-26T21:37:33.696Z,9.85
2023-03-26T21:42:35.633Z,9.59
2023-03-26T21:47:37.781Z,10.20
2023-03-26T21:52:47.128Z,8.65
2023-03-26T21:58:00.560Z,8.32
2023-03-26T22:03:10.084Z,10.14
2023-03-26T22:08:34.024Z,8.90
2023-03-26T22:13:35.836Z,8.98
2023-03-26T22:18:37.466Z,9.19
2023-03-26T22:23:39.096Z,9.52
2023-03-26T22:28:40.880Z,10.47
2023-03-26T22:33:42.945Z,9.67
2023-03-26T22:38:44.961Z,10.32
2023-03-26T22:43:46.789Z,9.80
2023-03-26T22:48:48.674Z,10.27
2023-03-26T22:53:50.246Z,9.00
2023-03-26T22:58:51.895Z,8.92
2023-03-26T23:03:54.577Z,8.19
2023-03-26T23:08:57.071Z,9.44
2023-03-26T23:13:58.883Z,8.87
2023-03-26T23:19:00.713Z,8.25
2023-03-26T23:24:03.767Z,6.91
2023-03-26T23:29:05.356Z,7.36
2023-03-26T23:34:06.913Z,7.99
2023-03-26T23:39:08.907Z,7.58
2023-03-26T23:44:14.391Z,7.11
2023-03-26T23:49:16.204Z,7.54
2023-03-26T23:54:18.698Z,7.95
2023-03-26T23:59:20.428Z,8.21
